createdAt,value
2023-03-01T00:02:11.547Z,101131.03
2023-03-01T00:07:13.447Z,101131.94
2023-03-01T00:12:15.157Z,101130.63
2023-03-01T00:17:16.823Z,101130.38
2023-03-01T00:22:18.419Z,101128.03
2023-03-01T00:27:20.024Z,101132.38
2023-03-01T00:32:21.652Z,101122.50
2023-03-01T00:37:24.066Z,101121.63
2023-03-01T00:42:25.697Z,101119.28
2023-03-01T00:47:30.034Z,101106.00
2023-03-01T00:52:31.649Z,101098.59
2023-03-01T00:57:34.440Z,101103.91
2023-03-01T01:02:36.671Z,101090.91
2023-03-01T01:07:38.603Z,101093.03
2023-03-01T01:12:40.253Z,101090.19
2023-03-01T01:17:42.043Z,101093.91
2023-03-01T01:22:43.660Z,101091.72
2023-03-01T01:27:46.318Z,101088.41
2023-03-01T01:32:47.919Z,101086.81
2023-03-01T01:37:49.530Z,101078.50
2023-03-01T01:42:51.723Z,101065.72
2023-03-01T01:47:56.501Z,101072.50
2023-03-01T01:52:58.827Z,101067.00
2023-03-01T01:58:05.849Z,101070.94
2023-03-01T02:03:12.826Z,101081.44
2023-03-01T02:08:17.465Z,101076.88
2023-03-01T02:13:19.209Z,101074.41
2023-03-01T02:18:24.580Z,101074.56
2023-03-01T02:23:26.870Z,101061.41
2023-03-01T02:28:36.444Z,101055.63
2023-03-01T02:33:40.004Z,101036.78
2023-03-01T02:38:43.095Z,101037.09
2023-03-01T02:43:44.957Z,101044.00
2023-03-01T02:48:55.792Z,101039.97
2023-03-01T02:54:11.044Z,101034.63
2023-03-01T02:59:12.787Z,101019.31
2023-03-01T03:04:18.079Z,101024.53
2023-03-01T03:09:23.210Z,101023.38
2023-03-01T03:14:24.833Z,101016.41
2023-03-01T03:19:26.666Z,101020.84
2023-03-01T03:24:39.295Z,101016.41
2023-03-01T03:29:41.003Z,101015.59
2023-03-01T03:34:42.641Z,101015.69
2023-03-01T03:39:44.238Z,101014.63
2023-03-01T03:44:45.844Z,101003.59
2023-03-01T03:49:47.479Z,100997.59
2023-03-01T03:54:49.090Z,101000.00
2023-03-01T03:59:50.693Z,101005.28
2023-03-01T04:04:53.428Z,101009.91
2023-03-01T04:09:55.026Z,101012.84
2023-03-01T04:14:56.687Z,101018.81
2023-03-01T04:19:59.928Z,101008.09
2023-03-01T04:25:03.035Z,101006.44
2023-03-01T04:30:05.099Z,101000.59
2023-03-01T04:35:06.994Z,101010.16
2023-03-01T04:40:17.301Z,101011.00
2023-03-01T04:45:19.217Z,101016.28
2023-03-01T04:50:22.659Z,101017.03
2023-03-01T04:55:26.842Z,101016.72
2023-03-01T05:00:28.518Z,101015.22
2023-03-01T05:05:37.215Z,101014.69
2023-03-01T05:10:39.827Z,101009.28
2023-03-01T05:15:41.851Z,101011.34
2023-03-01T05:20:43.905Z,101004.38
2023-03-01T05:25:45.907Z,100995.50
2023-03-01T05:30:48.389Z,100997.47
2023-03-01T05:35:51.442Z,100990.97
2023-03-01T05:40:53.149Z,100990.84
2023-03-01T05:45:54.817Z,100992.63
2023-03-01T05:51:01.280Z,101001.56
2023-03-01T05:56:05.626Z,100996.09
2023-03-01T06:01:13.365Z,101008.38
2023-03-01T06:06:14.978Z,100996.59
2023-03-01T06:11:16.943Z,100996.81
2023-03-01T06:16:18.577Z,101004.63
2023-03-01T06:21:20.197Z,101001.78
2023-03-01T06:26:21.805Z,101010.81
2023-03-01T06:31:23.460Z,101004.13
2023-03-01T06:36:25.203Z,101012.38
2023-03-01T06:41:26.977Z,101012.84
2023-03-01T06:46:28.856Z,101018.03
2023-03-01T06:51:30.693Z,101024.03
2023-03-01T06:56:33.512Z,101021.78
2023-03-01T07:01:35.320Z,101034.03
2023-03-01T07:06:37.005Z,101031.28
2023-03-01T07:11:38.615Z,101028.53
2023-03-01T07:16:40.239Z,101014.59
2023-03-01T07:21:41.881Z,101017.28
2023-03-01T07:26:43.525Z,101010.06
2023-03-01T07:31:45.304Z,101013.00
2023-03-01T07:36:47.049Z,101006.94
2023-03-01T07:41:48.779Z,100998.44
2023-03-01T07:46:57.390Z,101002.22
2023-03-01T07:51:59.327Z,100998.81
2023-03-01T07:57:00.960Z,100994.97
2023-03-01T08:02:02.668Z,100979.72
2023-03-01T08:07:06.628Z,100987.50
2023-03-01T08:12:08.454Z,100975.34
2023-03-01T08:17:10.093Z,100956.84
2023-03-01T08:22:11.958Z,100950.81
2023-03-01T08:27:14.344Z,100951.47
2023-03-01T08:32:16.112Z,100937.25
2023-03-01T08:37:17.862Z,100943.44
2023-03-01T08:42:19.460Z,100941.00
2023-03-01T08:47:21.089Z,100940.94
2023-03-01T08:52:23.463Z,100936.19
2023-03-01T08:57:25.083Z,100922.75
2023-03-01T09:02:26.765Z,100929.34
2023-03-01T09:07:31.386Z,100924.81
2023-03-01T09:12:33.047Z,100921.84
2023-03-01T09:17:34.668Z,100904.94
2023-03-01T09:22:36.284Z,100894.75
2023-03-01T09:27:37.892Z,100887.31
2023-03-01T09:32:43.680Z,100887.19
2023-03-01T09:37:45.635Z,100879.16
2023-03-01T09:43:09.750Z,100891.19
2023-03-01T09:48:19.777Z,100883.88
2023-03-01T09:53:26.617Z,100890.84
2023-03-01T09:58:47.060Z,100894.91
2023-03-01T10:04:06.300Z,100888.66
2023-03-01T10:09:18.866Z,100882.59
2023-03-01T10:14:52.509Z,100890.13
2023-03-01T10:19:56.119Z,100878.44
2023-03-01T10:25:00.809Z,100881.09
2023-03-01T10:30:21.036Z,100882.03
2023-03-01T10:35:25.737Z,100872.31
2023-03-01T10:40:27.564Z,100874.78
2023-03-01T10:45:40.086Z,100857.31
2023-03-01T10:50:44.599Z,100845.63
2023-03-01T10:55:46.323Z,100842.38
2023-03-01T11:00:51.246Z,100836.19
2023-03-01T11:05:56.648Z,100830.56
2023-03-01T11:11:27.203Z,100828.75
2023-03-01T11:16:49.668Z,100819.72
2023-03-01T11:21:55.727Z,100808.38
2023-03-01T11:27:01.048Z,100815.63
2023-03-01T11:32:08.594Z,100804.44
2023-03-01T11:37:26.015Z,100807.03
2023-03-01T11:42:53.203Z,100809.91
2023-03-01T11:48:11.927Z,100808.91
2023-03-01T11:53:27.886Z,100812.38
2023-03-01T11:58:54.159Z,100803.16
2023-03-01T12:04:23.483Z,100789.59
2023-03-01T12:09:37.292Z,100797.22
2023-03-01T12:14:48.094Z,100780.50
2023-03-01T12:20:16.755Z,100775.09
2023-03-01T12:25:35.826Z,100759.84
2023-03-01T12:30:56.161Z,100751.09
2023-03-01T12:36:12.899Z,100748.00
2023-03-01T12:41:29.735Z,100731.25
2023-03-01T12:46:45.455Z,100731.50
2023-03-01T12:52:11.708Z,100729.50
2023-03-01T12:57:38.749Z,100727.88
2023-03-01T13:02:49.202Z,100725.63
2023-03-01T13:08:03.562Z,100722.66
2023-03-01T13:13:34.559Z,100728.38
2023-03-01T13:18:36.218Z,100720.94
2023-03-01T13:23:40.840Z,100722.38
2023-03-01T13:28:45.162Z,100725.91
2023-03-01T13:33:50.921Z,100731.00
2023-03-01T13:38:56.254Z,100720.28
2023-03-01T13:43:58.802Z,100716.75
2023-03-01T13:49:01.378Z,100710.03
2023-03-01T13:54:03.174Z,100711.16
2023-03-01T13:59:18.552Z,100709.53
2023-03-01T14:04:36.837Z,100706.06
2023-03-01T14:09:45.039Z,100702.78
2023-03-01T14:14:57.904Z,100697.88
2023-03-01T14:20:24.342Z,100681.19
2023-03-01T14:25:33.415Z,100685.81
2023-03-01T14:30:42.674Z,100675.78
2023-03-01T14:35:57.675Z,100676.03
2023-03-01T14:41:07.150Z,100679.75
2023-03-01T14:46:20.098Z,100673.84
2023-03-01T14:51:22.481Z,100660.78
2023-03-01T14:56:24.101Z,100659.97
2023-03-01T15:01:25.880Z,100652.16
2023-03-01T15:06:27.752Z,100661.63
2023-03-01T15:11:34.226Z,100661.13
2023-03-01T15:16:42.389Z,100658.16
2023-03-01T15:21:48.033Z,100659.31
2023-03-01T15:26:58.547Z,100649.31
2023-03-01T15:32:07.034Z,100660.09
2023-03-01T15:37:38.231Z,100656.13
2023-03-01T15:42:39.868Z,100647.28
2023-03-01T15:47:42.712Z,100645.91
2023-03-01T15:52:44.496Z,100646.28
2023-03-01T15:57:46.333Z,100640.63
2023-03-01T16:02:47.962Z,100634.94
2023-03-01T16:07:50.270Z,100639.59
2023-03-01T16:12:53.621Z,100631.63
2023-03-01T16:17:55.386Z,100640.38
2023-03-01T16:23:01.459Z,100642.00
2023-03-01T16:28:09.621Z,100651.19
2023-03-01T16:33:33.321Z,100653.97
2023-03-01T16:38:33.569Z,100655.47
2023-03-01T16:43:35.215Z,100654.47
2023-03-01T16:48:36.837Z,100657.22
2023-03-01T16:53:39.048Z,100663.38
2023-03-01T16:58:41.531Z,100659.97
2023-03-01T17:03:44.091Z,100658.63
2023-03-01T17:08:45.709Z,100664.84
2023-03-01T17:13:47.818Z,100666.25
2023-03-01T17:18:50.069Z,100661.34
2023-03-01T17:23:56.431Z,100667.41
2023-03-01T17:28:59.215Z,100670.06
2023-03-01T17:34:01.734Z,100684.63
2023-03-01T17:39:03.456Z,100681.56
2023-03-01T17:44:05.172Z,100688.94
2023-03-01T17:49:06.831Z,100688.50
2023-03-01T17:54:08.469Z,100691.56
2023-03-01T17:59:10.082Z,100684.75
2023-03-01T18:04:12.155Z,100685.25
2023-03-01T18:09:14.780Z,100694.69
2023-03-01T18:14:16.462Z,100689.16
2023-03-01T18:19:18.149Z,100693.53
2023-03-01T18:24:19.990Z,100693.41
2023-03-01T18:29:21.610Z,100692.91
2023-03-01T18:34:24.159Z,100673.78
2023-03-01T18:39:25.852Z,100672.03
2023-03-01T18:44:27.475Z,100673.47
2023-03-01T18:49:29.165Z,100671.56
2023-03-01T18:54:30.932Z,100674.47
2023-03-01T18:59:32.692Z,100675.84
2023-03-01T19:04:34.372Z,100676.56
2023-03-01T19:09:36.383Z,100671.84
2023-03-01T19:14:38.053Z,100681.06
2023-03-01T19:19:40.005Z,100675.47
2023-03-01T19:24:41.614Z,100676.59
2023-03-01T19:29:43.290Z,100675.25
2023-03-01T19:34:46.685Z,100678.03
2023-03-01T19:39:48.307Z,100678.72
2023-03-01T19:44:49.910Z,100675.78
2023-03-01T19:49:51.504Z,100665.22
2023-03-01T19:54:58.145Z,100673.66
2023-03-01T20:00:06.273Z,100680.78
2023-03-01T20:05:14.002Z,100682.28
2023-03-01T20:10:15.743Z,100689.03
2023-03-01T20:15:17.373Z,100685.03
2023-03-01T20:20:19.075Z,100679.47
2023-03-01T20:25:20.717Z,100688.06
2023-03-01T20:30:22.324Z,100681.97
2023-03-01T20:35:24.044Z,100675.47
2023-03-01T20:40:28.266Z,100665.53
2023-03-01T20:45:29.944Z,100674.91
2023-03-01T20:50:31.746Z,100664.94
2023-03-01T20:55:33.635Z,100660.47
2023-03-01T21:00:35.716Z,100662.84
2023-03-01T21:05:37.430Z,100660.22
2023-03-01T21:10:39.067Z,100655.94
2023-03-01T21:15:40.682Z,100660.09
2023-03-01T21:20:42.773Z,100656.53
2023-03-01T21:25:45.401Z,100652.19
2023-03-01T21:30:47.030Z,100653.34
2023-03-01T21:35:48.933Z,100649.63
2023-03-01T21:40:50.647Z,100643.78
2023-03-01T21:45:52.366Z,100654.84
2023-03-01T21:50:58.436Z,100651.50
2023-03-01T21:56:01.494Z,100637.41
2023-03-01T22:01:12.299Z,100635.97
2023-03-01T22:06:19.875Z,100632.41
2023-03-01T22:11:22.639Z,100622.38
2023-03-01T22:16:28.225Z,100625.19
2023-03-01T22:21:29.929Z,100612.69
2023-03-01T22:26:37.509Z,100619.78
2023-03-01T22:31:39.760Z,100617.38
2023-03-01T22:36:41.516Z,100624.13
2023-03-01T22:41:46.028Z,100613.25
2023-03-01T22:46:48.191Z,100619.66
2023-03-01T22:51:50.743Z,100619.38
2023-03-01T22:56:52.438Z,100620.25
2023-03-01T23:01:54.636Z,100615.09
2023-03-01T23:06:56.813Z,100615.97
2023-03-01T23:12:00.378Z,100611.84
2023-03-01T23:17:02.628Z,100610.09
2023-03-01T23:22:04.917Z,100623.06
2023-03-01T23:27:06.854Z,100611.25
2023-03-01T23:32:09.256Z,100613.00
2023-03-01T23:37:10.923Z,100604.41
2023-03-01T23:42:12.529Z,100616.44
2023-03-01T23:47:14.188Z,100616.25
2023-03-01T23:52:17.312Z,100608.94
2023-03-01T23:57:19.947Z,100613.63
